sensor_id;sensor_type;location;lat;lon;timestamp;pressure;altitude;pressure_sealevel;temperature;humidity
46955;BME280;32708;51.212;6.788;2023-07-20T00:01:30;100777.78;;;27.41;64.10
46955;BME280;32708;51.212;6.788;2023-07-20T00:03:56;100768.78;;;26.91;65.75
46955;BME280;32708;51.212;6.788;2023-07-20T00:06:24;100765.78;;;27.41;64.27
46955;BME280;32708;51.212;6.788;2023-07-20T00:08:52;100766.72;;;27.70;63.06
46955;BME280;32708;51.212;6.788;2023-07-20T00:11:18;100776.22;;;27.57;63.15
46955;BME280;32708;51.212;6.788;2023-07-20T00:13:44;100771.97;;;27.32;64.62
46955;BME280;32708;51.212;6.788;2023-07-20T00:16:10;100764.44;;;27.09;64.54
46955;BME280;32708;51.212;6.788;2023-07-20T00:18:37;100768.03;;;27.30;64.74
46955;BME280;32708;51.212;6.788;2023-07-20T00:21:03;100765.00;;;27.21;65.11
46955;BME280;32708;51.212;6.788;2023-07-20T00:23:29;100767.59;;;27.11;65.15
46955;BME280;32708;51.212;6.788;2023-07-20T00:25:55;100774.84;;;26.89;65.68
46955;BME280;32708;51.212;6.788;2023-07-20T00:28:22;100766.00;;;26.91;66.36
46955;BME280;32708;51.212;6.788;2023-07-20T00:30:48;100767.31;;;27.06;66.22
46955;BME280;32708;51.212;6.788;2023-07-20T00:33:18;100768.69;;;27.18;66.09
46955;BME280;32708;51.212;6.788;2023-07-20T00:35:45;100756.84;;;27.46;64.71
46955;BME280;32708;51.212;6.788;2023-07-20T00:38:11;100759.41;;;27.21;65.20
46955;BME280;32708;51.212;6.788;2023-07-20T00:40:38;100756.66;;;27.37;64.16
46955;BME280;32708;51.212;6.788;2023-07-20T00:43:04;100749.84;;;27.54;63.75
46955;BME280;32708;51.212;6.788;2023-07-20T00:45:32;100753.41;;;26.99;65.50
46955;BME280;32708;51.212;6.788;2023-07-20T00:48:01;100751.56;;;27.68;62.66
46955;BME280;32708;51.212;6.788;2023-07-20T00:50:30;100767.00;;;27.40;63.49
46955;BME280;32708;51.212;6.788;2023-07-20T00:52:57;100776.06;;;27.28;64.66
46955;BME280;32708;51.212;6.788;2023-07-20T00:55:26;100776.09;;;26.65;67.11
46955;BME280;32708;51.212;6.788;2023-07-20T00:57:53;100778.59;;;25.85;70.38
46955;BME280;32708;51.212;6.788;2023-07-20T01:00:20;100777.09;;;25.81;71.63
46955;BME280;32708;51.212;6.788;2023-07-20T01:02:46;100784.25;;;25.82;72.39
46955;BME280;32708;51.212;6.788;2023-07-20T01:05:14;100784.13;;;25.62;73.03
46955;BME280;32708;51.212;6.788;2023-07-20T01:07:58;100785.28;;;26.18;70.82
46955;BME280;32708;51.212;6.788;2023-07-20T01:10:40;100779.88;;;26.31;70.74
46955;BME280;32708;51.212;6.788;2023-07-20T01:13:10;100776.72;;;26.52;69.12
46955;BME280;32708;51.212;6.788;2023-07-20T01:15:38;100768.41;;;26.69;67.74
46955;BME280;32708;51.212;6.788;2023-07-20T01:18:05;100778.78;;;26.48;68.96
46955;BME280;32708;51.212;6.788;2023-07-20T01:20:34;100780.53;;;26.62;68.92
46955;BME280;32708;51.212;6.788;2023-07-20T01:27:15;100777.00;;;26.34;72.92
46955;BME280;32708;51.212;6.788;2023-07-20T01:29:55;100781.25;;;26.19;74.27
46955;BME280;32708;51.212;6.788;2023-07-20T01:32:25;100781.34;;;26.39;73.29
46955;BME280;32708;51.212;6.788;2023-07-20T01:34:54;100768.28;;;26.05;74.60
46955;BME280;32708;51.212;6.788;2023-07-20T01:37:25;100776.06;;;25.94;75.28
46955;BME280;32708;51.212;6.788;2023-07-20T01:39:55;100772.69;;;25.22;79.80
46955;BME280;32708;51.212;6.788;2023-07-20T01:42:23;100765.66;;;25.68;76.99
46955;BME280;32708;51.212;6.788;2023-07-20T01:44:51;100768.78;;;26.00;75.48
46955;BME280;32708;51.212;6.788;2023-07-20T01:47:23;100765.41;;;25.86;76.17
46955;BME280;32708;51.212;6.788;2023-07-20T01:49:49;100758.91;;;25.65;77.16
46955;BME280;32708;51.212;6.788;2023-07-20T01:52:15;100760.63;;;25.56;77.66
46955;BME280;32708;51.212;6.788;2023-07-20T01:54:42;100770.81;;;25.73;77.27
46955;BME280;32708;51.212;6.788;2023-07-20T01:57:08;100778.69;;;25.78;77.64
46955;BME280;32708;51.212;6.788;2023-07-20T01:59:34;100766.59;;;26.12;75.92
46955;BME280;32708;51.212;6.788;2023-07-20T02:02:00;100774.50;;;25.93;76.60
46955;BME280;32708;51.212;6.788;2023-07-20T02:04:26;100770.09;;;25.92;76.96
46955;BME280;32708;51.212;6.788;2023-07-20T02:06:52;100760.09;;;26.18;75.61
46955;BME280;32708;51.212;6.788;2023-07-20T02:09:18;100757.09;;;25.51;78.18
46955;BME280;32708;51.212;6.788;2023-07-20T02:11:45;100758.59;;;25.60;78.44
46955;BME280;32708;51.212;6.788;2023-07-20T02:14:12;100758.47;;;25.67;78.40
46955;BME280;32708;51.212;6.788;2023-07-20T02:16:38;100756.34;;;25.47;78.68
46955;BME280;32708;51.212;6.788;2023-07-20T02:19:04;100749.19;;;24.78;81.57
46955;BME280;32708;51.212;6.788;2023-07-20T02:21:32;100752.97;;;24.98;81.29
46955;BME280;32708;51.212;6.788;2023-07-20T02:23:59;100755.91;;;25.22;80.38
46955;BME280;32708;51.212;6.788;2023-07-20T02:26:26;100755.31;;;25.38;80.20
46955;BME280;32708;51.212;6.788;2023-07-20T02:28:52;100766.78;;;25.13;80.30
46955;BME280;32708;51.212;6.788;2023-07-20T02:31:18;100752.13;;;25.36;79.44
46955;BME280;32708;51.212;6.788;2023-07-20T02:33:44;100765.09;;;25.49;78.77
46955;BME280;32708;51.212;6.788;2023-07-20T02:36:10;100761.13;;;25.50;79.19
46955;BME280;32708;51.212;6.788;2023-07-20T02:38:36;100775.94;;;25.17;80.29
46955;BME280;32708;51.212;6.788;2023-07-20T02:41:02;100766.13;;;25.63;78.54
46955;BME280;32708;51.212;6.788;2023-07-20T02:43:28;100773.41;;;25.87;77.35
46955;BME280;32708;51.212;6.788;2023-07-20T02:45:55;100770.59;;;25.57;78.57
46955;BME280;32708;51.212;6.788;2023-07-20T02:48:21;100765.81;;;26.11;76.38
46955;BME280;32708;51.212;6.788;2023-07-20T02:50:48;100771.34;;;25.61;78.30
46955;BME280;32708;51.212;6.788;2023-07-20T02:53:14;100765.69;;;25.37;78.48
46955;BME280;32708;51.212;6.788;2023-07-20T02:55:40;100770.44;;;25.40;79.09
46955;BME280;32708;51.212;6.788;2023-07-20T02:58:06;100765.22;;;25.73;77.48
46955;BME280;32708;51.212;6.788;2023-07-20T03:00:33;100768.94;;;25.32;79.34
46955;BME280;32708;51.212;6.788;2023-07-20T03:02:59;100766.41;;;25.41;78.96
46955;BME280;32708;51.212;6.788;2023-07-20T03:05:25;100769.34;;;24.96;81.01
46955;BME280;32708;51.212;6.788;2023-07-20T03:07:52;100767.09;;;24.43;84.45
46955;BME280;32708;51.212;6.788;2023-07-20T03:10:18;100768.41;;;24.28;84.62
46955;BME280;32708;51.212;6.788;2023-07-20T03:12:44;100775.03;;;24.86;82.64
46955;BME280;32708;51.212;6.788;2023-07-20T03:15:10;100784.47;;;24.13;86.02
46955;BME280;32708;51.212;6.788;2023-07-20T03:17:37;100782.16;;;24.08;86.77
46955;BME280;32708;51.212;6.788;2023-07-20T03:20:05;100786.78;;;24.74;83.33
46955;BME280;32708;51.212;6.788;2023-07-20T03:22:35;100781.94;;;24.36;85.18
46955;BME280;32708;51.212;6.788;2023-07-20T03:25:01;100778.84;;;25.06;82.13
46955;BME280;32708;51.212;6.788;2023-07-20T03:27:27;100782.41;;;24.73;83.63
46955;BME280;32708;51.212;6.788;2023-07-20T03:29:55;100784.91;;;24.97;82.77
46955;BME280;32708;51.212;6.788;2023-07-20T03:32:21;100783.03;;;24.87;83.04
46955;BME280;32708;51.212;6.788;2023-07-20T03:34:47;100784.28;;;24.83;83.55
46955;BME280;32708;51.212;6.788;2023-07-20T03:37:14;100783.19;;;25.41;80.50
46955;BME280;32708;51.212;6.788;2023-07-20T03:39:40;100780.88;;;25.02;81.76
46955;BME280;32708;51.212;6.788;2023-07-20T03:42:07;100778.25;;;24.84;82.82
46955;BME280;32708;51.212;6.788;2023-07-20T03:44:33;100792.06;;;24.61;84.82
46955;BME280;32708;51.212;6.788;2023-07-20T03:47:00;100787.56;;;24.29;85.71
46955;BME280;32708;51.212;6.788;2023-07-20T03:49:26;100791.53;;;24.28;85.94
46955;BME280;32708;51.212;6.788;2023-07-20T03:51:52;100798.00;;;24.14;86.94
46955;BME280;32708;51.212;6.788;2023-07-20T03:54:19;100800.44;;;24.12;87.43
46955;BME280;32708;51.212;6.788;2023-07-20T03:56:45;100801.84;;;24.38;85.89
46955;BME280;32708;51.212;6.788;2023-07-20T03:59:12;100807.38;;;24.42;86.19
46955;BME280;32708;51.212;6.788;2023-07-20T04:01:38;100812.19;;;24.83;84.32
46955;BME280;32708;51.212;6.788;2023-07-20T04:04:07;100814.53;;;25.25;82.39
46955;BME280;32708;51.212;6.788;2023-07-20T04:06:34;100803.06;;;24.79;84.04
46955;BME280;32708;51.212;6.788;2023-07-20T04:09:00;100803.97;;;25.10;82.76
46955;BME280;32708;51.212;6.788;2023-07-20T04:11:27;100807.88;;;24.30;86.11
46955;BME280;32708;51.212;6.788;2023-07-20T04:13:53;100809.53;;;24.72;85.40
46955;BME280;32708;51.212;6.788;2023-07-20T04:16:19;100798.53;;;24.54;86.12
46955;BME280;32708;51.212;6.788;2023-07-20T04:18:46;100799.97;;;25.07;84.15
46955;BME280;32708;51.212;6.788;2023-07-20T04:21:13;100804.66;;;25.17;82.75
46955;BME280;32708;51.212;6.788;2023-07-20T04:23:39;100805.44;;;25.52;81.04
46955;BME280;32708;51.212;6.788;2023-07-20T04:26:05;100805.56;;;25.41;81.59
46955;BME280;32708;51.212;6.788;2023-07-20T04:28:32;100811.41;;;25.20;82.51
46955;BME280;32708;51.212;6.788;2023-07-20T04:31:14;100803.50;;;25.15;82.96
46955;BME280;32708;51.212;6.788;2023-07-20T04:33:41;100808.16;;;25.25;83.39
46955;BME280;32708;51.212;6.788;2023-07-20T04:36:07;100803.34;;;25.29;81.78
46955;BME280;32708;51.212;6.788;2023-07-20T04:38:35;100822.44;;;24.93;83.17
46955;BME280;32708;51.212;6.788;2023-07-20T04:41:15;100822.41;;;24.59;86.00
46955;BME280;32708;51.212;6.788;2023-07-20T04:43:44;100820.75;;;24.65;85.40
46955;BME280;32708;51.212;6.788;2023-07-20T04:46:13;100825.28;;;24.89;84.96
46955;BME280;32708;51.212;6.788;2023-07-20T04:48:39;100822.19;;;25.52;81.84
46955;BME280;32708;51.212;6.788;2023-07-20T04:51:06;100833.06;;;25.77;80.63
46955;BME280;32708;51.212;6.788;2023-07-20T04:53:33;100829.81;;;25.82;79.86
46955;BME280;32708;51.212;6.788;2023-07-20T04:55:59;100830.34;;;25.05;82.95
46955;BME280;32708;51.212;6.788;2023-07-20T04:58:25;100830.25;;;25.46;81.63
46955;BME280;32708;51.212;6.788;2023-07-20T05:00:53;100823.53;;;25.71;80.51
46955;BME280;32708;51.212;6.788;2023-07-20T05:03:20;100825.34;;;25.85;79.98
46955;BME280;32708;51.212;6.788;2023-07-20T05:05:47;100828.84;;;25.62;80.77
46955;BME280;32708;51.212;6.788;2023-07-20T05:08:17;100821.75;;;25.23;81.39
46955;BME280;32708;51.212;6.788;2023-07-20T05:10:43;100825.22;;;24.96;83.80
46955;BME280;32708;51.212;6.788;2023-07-20T05:13:09;100827.53;;;24.64;85.34
46955;BME280;32708;51.212;6.788;2023-07-20T05:15:36;100827.88;;;25.11;83.84
46955;BME280;32708;51.212;6.788;2023-07-20T05:18:03;100828.59;;;24.77;84.67
46955;BME280;32708;51.212;6.788;2023-07-20T05:20:30;100830.72;;;25.07;85.06
46955;BME280;32708;51.212;6.788;2023-07-20T05:22:57;100833.75;;;25.20;83.82
46955;BME280;32708;51.212;6.788;2023-07-20T05:25:23;100836.13;;;25.56;82.52
46955;BME280;32708;51.212;6.788;2023-07-20T05:27:49;100834.31;;;24.66;85.82
46955;BME280;32708;51.212;6.788;2023-07-20T05:30:16;100831.81;;;25.17;84.86
46955;BME280;32708;51.212;6.788;2023-07-20T05:32:42;100835.44;;;25.78;81.55
46955;BME280;32708;51.212;6.788;2023-07-20T05:35:11;100830.09;;;25.57;82.21
46955;BME280;32708;51.212;6.788;2023-07-20T05:37:37;100831.84;;;25.47;82.66
46955;BME280;32708;51.212;6.788;2023-07-20T05:40:05;100827.59;;;25.97;80.56
46955;BME280;32708;51.212;6.788;2023-07-20T05:42:32;100828.47;;;25.90;81.04
46955;BME280;32708;51.212;6.788;2023-07-20T05:44:58;100822.91;;;26.14;78.87
46955;BME280;32708;51.212;6.788;2023-07-20T05:47:24;100825.66;;;25.94;79.63
46955;BME280;32708;51.212;6.788;2023-07-20T05:49:50;100826.03;;;26.46;78.18
46955;BME280;32708;51.212;6.788;2023-07-20T05:52:16;100836.38;;;26.49;76.99
46955;BME280;32708;51.212;6.788;2023-07-20T05:54:42;100833.31;;;26.40;78.14
46955;BME280;32708;51.212;6.788;2023-07-20T05:57:09;100837.63;;;26.92;74.30
46955;BME280;32708;51.212;6.788;2023-07-20T05:59:35;100846.06;;;26.18;78.21
46955;BME280;32708;51.212;6.788;2023-07-20T06:02:02;100844.25;;;25.77;79.72
46955;BME280;32708;51.212;6.788;2023-07-20T06:04:28;100847.44;;;26.06;79.13
46955;BME280;32708;51.212;6.788;2023-07-20T06:06:54;100845.00;;;26.82;75.59
46955;BME280;32708;51.212;6.788;2023-07-20T06:09:20;100843.91;;;26.76;75.17
46955;BME280;32708;51.212;6.788;2023-07-20T06:11:46;100844.53;;;26.40;75.42
46955;BME280;32708;51.212;6.788;2023-07-20T06:14:12;100845.50;;;26.53;74.91
46955;BME280;32708;51.212;6.788;2023-07-20T06:16:39;100849.47;;;27.23;72.36
46955;BME280;32708;51.212;6.788;2023-07-20T06:19:05;100850.47;;;26.89;73.26
46955;BME280;32708;51.212;6.788;2023-07-20T06:21:31;100854.88;;;26.43;75.72
46955;BME280;32708;51.212;6.788;2023-07-20T06:23:57;100865.78;;;26.07;77.95
46955;BME280;32708;51.212;6.788;2023-07-20T06:26:24;100860.16;;;26.38;76.77
46955;BME280;32708;51.212;6.788;2023-07-20T06:28:50;100856.19;;;27.85;70.30
46955;BME280;32708;51.212;6.788;2023-07-20T06:31:17;100868.63;;;27.84;69.47
46955;BME280;32708;51.212;6.788;2023-07-20T06:33:43;100867.09;;;26.76;72.50
46955;BME280;32708;51.212;6.788;2023-07-20T06:36:10;100857.75;;;27.30;70.06
46955;BME280;32708;51.212;6.788;2023-07-20T06:38:37;100863.75;;;26.85;72.91
46955;BME280;32708;51.212;6.788;2023-07-20T06:41:03;100865.56;;;26.72;73.78
46955;BME280;32708;51.212;6.788;2023-07-20T06:43:29;100860.09;;;26.88;71.65
46955;BME280;32708;51.212;6.788;2023-07-20T06:45:55;100859.72;;;26.86;72.31
46955;BME280;32708;51.212;6.788;2023-07-20T06:48:22;100855.56;;;28.62;65.67
46955;BME280;32708;51.212;6.788;2023-07-20T06:50:48;100842.63;;;29.68;59.58
46955;BME280;32708;51.212;6.788;2023-07-20T06:53:14;100847.50;;;30.31;56.80
46955;BME280;32708;51.212;6.788;2023-07-20T06:55:42;100846.03;;;29.47;58.63
46955;BME280;32708;51.212;6.788;2023-07-20T06:58:10;100847.81;;;30.46;54.21
46955;BME280;32708;51.212;6.788;2023-07-20T07:00:37;100849.50;;;29.93;56.01
46955;BME280;32708;51.212;6.788;2023-07-20T07:03:03;100852.03;;;30.16;54.09
46955;BME280;32708;51.212;6.788;2023-07-20T07:05:29;100852.38;;;30.78;52.31
46955;BME280;32708;51.212;6.788;2023-07-20T07:07:55;100851.97;;;31.45;49.11
46955;BME280;32708;51.212;6.788;2023-07-20T07:10:21;100846.50;;;32.53;46.82
46955;BME280;32708;51.212;6.788;2023-07-20T07:12:47;100844.91;;;32.43;45.65
46955;BME280;32708;51.212;6.788;2023-07-20T07:15:13;100856.34;;;31.03;48.95
46955;BME280;32708;51.212;6.788;2023-07-20T07:17:40;100849.38;;;33.08;43.46
46955;BME280;32708;51.212;6.788;2023-07-20T07:20:07;100861.63;;;30.66;47.29
46955;BME280;32708;51.212;6.788;2023-07-20T07:22:33;100862.66;;;31.72;45.29
46955;BME280;32708;51.212;6.788;2023-07-20T07:24:59;100853.25;;;32.56;43.77
46955;BME280;32708;51.212;6.788;2023-07-20T07:27:26;100860.09;;;31.65;44.51
46955;BME280;32708;51.212;6.788;2023-07-20T07:29:52;100857.38;;;30.96;47.09
46955;BME280;32708;51.212;6.788;2023-07-20T07:32:18;100853.59;;;32.09;45.90
46955;BME280;32708;51.212;6.788;2023-07-20T07:34:45;100855.50;;;32.79;44.02
46955;BME280;32708;51.212;6.788;2023-07-20T07:37:12;100863.81;;;31.84;45.71
46955;BME280;32708;51.212;6.788;2023-07-20T07:39:39;100871.84;;;30.12;50.68
46955;BME280;32708;51.212;6.788;2023-07-20T07:42:06;100883.50;;;28.37;57.42
46955;BME280;32708;51.212;6.788;2023-07-20T07:44:32;100880.31;;;28.67;57.49
46955;BME280;32708;51.212;6.788;2023-07-20T07:46:58;100876.09;;;28.43;57.33
46955;BME280;32708;51.212;6.788;2023-07-20T07:49:24;100883.28;;;28.28;58.50
46955;BME280;32708;51.212;6.788;2023-07-20T07:51:50;100875.75;;;30.28;51.95
46955;BME280;32708;51.212;6.788;2023-07-20T07:54:16;100879.69;;;31.38;48.50
46955;BME280;32708;51.212;6.788;2023-07-20T07:56:43;100885.78;;;30.67;49.04
46955;BME280;32708;51.212;6.788;2023-07-20T07:59:10;100883.25;;;30.82;48.18
46955;BME280;32708;51.212;6.788;2023-07-20T08:01:37;100879.34;;;31.80;44.08
46955;BME280;32708;51.212;6.788;2023-07-20T08:04:03;100882.03;;;32.73;41.85
46955;BME280;32708;51.212;6.788;2023-07-20T08:06:30;100879.94;;;32.46;41.88
46955;BME280;32708;51.212;6.788;2023-07-20T08:08:57;100888.84;;;33.03;41.73
46955;BME280;32708;51.212;6.788;2023-07-20T08:11:24;100875.69;;;33.79;38.35
46955;BME280;32708;51.212;6.788;2023-07-20T08:13:50;100879.88;;;32.95;40.00
46955;BME280;32708;51.212;6.788;2023-07-20T08:16:16;100882.00;;;32.54;40.43
46955;BME280;32708;51.212;6.788;2023-07-20T08:18:43;100887.47;;;31.56;41.75
46955;BME280;32708;51.212;6.788;2023-07-20T08:21:10;100893.50;;;31.89;42.39
46955;BME280;32708;51.212;6.788;2023-07-20T08:23:36;100879.22;;;33.00;39.36
46955;BME280;32708;51.212;6.788;2023-07-20T08:26:02;100881.44;;;33.24;38.04
46955;BME280;32708;51.212;6.788;2023-07-20T08:28:28;100887.69;;;33.55;36.61
46955;BME280;32708;51.212;6.788;2023-07-20T08:30:55;100885.38;;;33.08;37.19
46955;BME280;32708;51.212;6.788;2023-07-20T08:33:21;100879.53;;;33.48;36.54
46955;BME280;32708;51.212;6.788;2023-07-20T08:35:47;100882.50;;;34.71;34.32
46955;BME280;32708;51.212;6.788;2023-07-20T08:38:14;100878.13;;;33.53;36.04
46955;BME280;32708;51.212;6.788;2023-07-20T08:40:44;100881.28;;;34.39;35.49
46955;BME280;32708;51.212;6.788;2023-07-20T08:43:12;100882.19;;;34.12;35.22
46955;BME280;32708;51.212;6.788;2023-07-20T08:45:40;100878.53;;;34.54;34.98
46955;BME280;32708;51.212;6.788;2023-07-20T08:48:08;100891.06;;;32.49;38.13
46955;BME280;32708;51.212;6.788;2023-07-20T08:50:36;100895.06;;;30.29;43.54
46955;BME280;32708;51.212;6.788;2023-07-20T08:53:03;100895.78;;;30.55;43.92
46955;BME280;32708;51.212;6.788;2023-07-20T08:55:30;100900.88;;;30.48;44.47
46955;BME280;32708;51.212;6.788;2023-07-20T08:58:00;100896.19;;;28.90;46.05
46955;BME280;32708;51.212;6.788;2023-07-20T09:00:27;100892.88;;;30.08;44.68
46955;BME280;32708;51.212;6.788;2023-07-20T09:02:58;100890.31;;;30.13;43.96
46955;BME280;32708;51.212;6.788;2023-07-20T09:05:26;100884.19;;;32.59;38.97
46955;BME280;32708;51.212;6.788;2023-07-20T09:07:53;100879.72;;;34.05;35.89
46955;BME280;32708;51.212;6.788;2023-07-20T09:10:24;100880.50;;;32.31;37.00
46955;BME280;32708;51.212;6.788;2023-07-20T09:12:50;100885.28;;;32.13;37.77
46955;BME280;32708;51.212;6.788;2023-07-20T09:15:17;100888.78;;;32.75;37.47
46955;BME280;32708;51.212;6.788;2023-07-20T09:17:50;100892.75;;;31.44;39.08
46955;BME280;32708;51.212;6.788;2023-07-20T09:20:18;100895.25;;;30.73;41.05
46955;BME280;32708;51.212;6.788;2023-07-20T09:22:44;100886.94;;;32.91;36.69
46955;BME280;32708;51.212;6.788;2023-07-20T09:25:14;100891.03;;;33.26;35.60
46955;BME280;32708;51.212;6.788;2023-07-20T09:27:44;100876.00;;;33.81;33.96
46955;BME280;32708;51.212;6.788;2023-07-20T09:30:11;100886.31;;;34.35;34.01
46955;BME280;32708;51.212;6.788;2023-07-20T09:32:45;100881.63;;;34.32;33.35
46955;BME280;32708;51.212;6.788;2023-07-20T09:35:22;100873.09;;;33.48;33.28
46955;BME280;32708;51.212;6.788;2023-07-20T09:37:57;100872.97;;;33.93;32.49
46955;BME280;32708;51.212;6.788;2023-07-20T09:40:26;100877.56;;;34.81;32.02
46955;BME280;32708;51.212;6.788;2023-07-20T09:42:54;100864.16;;;33.40;34.00
46955;BME280;32708;51.212;6.788;2023-07-20T09:45:40;100871.69;;;35.09;33.11
46955;BME280;32708;51.212;6.788;2023-07-20T09:48:11;100868.31;;;36.08;31.50
46955;BME280;32708;51.212;6.788;2023-07-20T09:50:49;100866.72;;;34.22;32.72
46955;BME280;32708;51.212;6.788;2023-07-20T09:53:18;100865.41;;;34.00;33.31
46955;BME280;32708;51.212;6.788;2023-07-20T09:55:47;100873.13;;;34.32;33.95
46955;BME280;32708;51.212;6.788;2023-07-20T09:58:15;100874.34;;;34.64;32.24
46955;BME280;32708;51.212;6.788;2023-07-20T10:00:43;100862.53;;;35.43;30.67
46955;BME280;32708;51.212;6.788;2023-07-20T10:03:19;100864.91;;;34.10;32.36
46955;BME280;32708;51.212;6.788;2023-07-20T10:06:00;100863.34;;;35.73;30.87
46955;BME280;32708;51.212;6.788;2023-07-20T10:08:30;100870.38;;;35.48;31.49
46955;BME280;32708;51.212;6.788;2023-07-20T10:11:02;100861.59;;;33.60;32.53
46955;BME280;32708;51.212;6.788;2023-07-20T10:13:30;100870.13;;;31.88;34.98
46955;BME280;32708;51.212;6.788;2023-07-20T10:16:36;100855.34;;;33.38;33.64
46955;BME280;32708;51.212;6.788;2023-07-20T10:19:23;100863.13;;;34.70;30.90
46955;BME280;32708;51.212;6.788;2023-07-20T10:22:10;100853.50;;;35.15;29.95
46955;BME280;32708;51.212;6.788;2023-07-20T10:24:38;100857.00;;;34.47;31.50
46955;BME280;32708;51.212;6.788;2023-07-20T10:27:05;100863.00;;;33.56;31.80
46955;BME280;32708;51.212;6.788;2023-07-20T10:29:33;100855.63;;;34.10;31.18
46955;BME280;32708;51.212;6.788;2023-07-20T10:32:00;100851.94;;;33.76;31.50
46955;BME280;32708;51.212;6.788;2023-07-20T10:34:28;100850.66;;;33.86;29.82
46955;BME280;32708;51.212;6.788;2023-07-20T10:36:54;100851.19;;;34.90;29.80
46955;BME280;32708;51.212;6.788;2023-07-20T10:39:46;100852.44;;;34.89;29.68
46955;BME280;32708;51.212;6.788;2023-07-20T10:42:13;100847.63;;;34.32;30.45
46955;BME280;32708;51.212;6.788;2023-07-20T10:44:40;100854.78;;;34.90;30.02
46955;BME280;32708;51.212;6.788;2023-07-20T10:47:12;100856.63;;;35.02;29.40
46955;BME280;32708;51.212;6.788;2023-07-20T10:50:01;100839.41;;;33.59;29.42
46955;BME280;32708;51.212;6.788;2023-07-20T10:52:39;100823.38;;;33.56;31.03
46955;BME280;32708;51.212;6.788;2023-07-20T10:55:19;100830.34;;;33.88;30.57
46955;BME280;32708;51.212;6.788;2023-07-20T10:58:11;100832.94;;;31.15;33.79
46955;BME280;32708;51.212;6.788;2023-07-20T11:00:55;100825.94;;;31.72;33.46
46955;BME280;32708;51.212;6.788;2023-07-20T11:03:39;100819.56;;;33.68;30.67
46955;BME280;32708;51.212;6.788;2023-07-20T11:09:09;100827.50;;;32.54;32.18
46955;BME280;32708;51.212;6.788;2023-07-20T11:11:46;100822.78;;;33.43;31.33
46955;BME280;32708;51.212;6.788;2023-07-20T11:14:23;100819.59;;;32.30;31.95
46955;BME280;32708;51.212;6.788;2023-07-20T11:16:53;100819.69;;;34.88;28.78
46955;BME280;32708;51.212;6.788;2023-07-20T11:19:25;100815.03;;;34.28;28.91
46955;BME280;32708;51.212;6.788;2023-07-20T11:21:53;100817.91;;;32.79;30.70
46955;BME280;32708;51.212;6.788;2023-07-20T11:24:20;100807.81;;;34.03;29.75
46955;BME280;32708;51.212;6.788;2023-07-20T11:26:54;100805.44;;;34.97;29.47
46955;BME280;32708;51.212;6.788;2023-07-20T11:29:24;100810.94;;;34.29;30.42
46955;BME280;32708;51.212;6.788;2023-07-20T11:31:51;100811.00;;;35.06;29.88
46955;BME280;32708;51.212;6.788;2023-07-20T11:34:21;100813.84;;;33.26;30.32
46955;BME280;32708;51.212;6.788;2023-07-20T11:36:50;100814.41;;;33.57;30.70
46955;BME280;32708;51.212;6.788;2023-07-20T11:39:19;100809.28;;;32.37;31.37
46955;BME280;32708;51.212;6.788;2023-07-20T11:41:57;100814.34;;;32.88;30.84
46955;BME280;32708;51.212;6.788;2023-07-20T11:44:28;100815.03;;;33.61;29.85
46955;BME280;32708;51.212;6.788;2023-07-20T11:47:08;100808.00;;;33.90;29.90
46955;BME280;32708;51.212;6.788;2023-07-20T11:52:07;100804.03;;;32.26;31.79
46955;BME280;32708;51.212;6.788;2023-07-20T11:54:35;100805.88;;;32.88;31.73
46955;BME280;32708;51.212;6.788;2023-07-20T11:57:02;100796.53;;;33.42;30.62
46955;BME280;32708;51.212;6.788;2023-07-20T11:59:29;100800.81;;;32.46;31.55
46955;BME280;32708;51.212;6.788;2023-07-20T12:02:00;100785.84;;;31.77;32.14
46955;BME280;32708;51.212;6.788;2023-07-20T12:04:27;100804.41;;;32.37;31.55
46955;BME280;32708;51.212;6.788;2023-07-20T12:06:54;100797.81;;;31.60;31.02
46955;BME280;32708;51.212;6.788;2023-07-20T12:09:21;100797.53;;;32.07;30.15
46955;BME280;32708;51.212;6.788;2023-07-20T12:11:50;100794.56;;;31.70;30.51
46955;BME280;32708;51.212;6.788;2023-07-20T12:14:17;100795.78;;;31.29;31.77
46955;BME280;32708;51.212;6.788;2023-07-20T12:16:44;100789.06;;;32.07;30.72
46955;BME280;32708;51.212;6.788;2023-07-20T12:19:12;100791.53;;;32.64;30.56
46955;BME280;32708;51.212;6.788;2023-07-20T12:21:41;100784.94;;;32.85;29.79
46955;BME280;32708;51.212;6.788;2023-07-20T12:24:11;100782.56;;;33.38;29.05
46955;BME280;32708;51.212;6.788;2023-07-20T12:26:37;100774.06;;;33.38;29.22
46955;BME280;32708;51.212;6.788;2023-07-20T12:29:04;100787.00;;;33.73;28.93
46955;BME280;32708;51.212;6.788;2023-07-20T12:31:34;100790.19;;;34.70;27.67
46955;BME280;32708;51.212;6.788;2023-07-20T12:34:02;100774.84;;;33.81;28.15
46955;BME280;32708;51.212;6.788;2023-07-20T12:36:28;100778.66;;;32.81;30.00
46955;BME280;32708;51.212;6.788;2023-07-20T12:38:54;100777.94;;;33.92;28.48
46955;BME280;32708;51.212;6.788;2023-07-20T12:41:20;100767.53;;;32.96;29.80
46955;BME280;32708;51.212;6.788;2023-07-20T12:43:46;100770.50;;;32.92;28.76
46955;BME280;32708;51.212;6.788;2023-07-20T12:46:13;100783.19;;;31.83;29.91
46955;BME280;32708;51.212;6.788;2023-07-20T12:48:41;100767.28;;;31.76;29.76
46955;BME280;32708;51.212;6.788;2023-07-20T12:51:09;100772.88;;;31.98;30.49
46955;BME280;32708;51.212;6.788;2023-07-20T12:53:37;100771.03;;;32.04;29.99
46955;BME280;32708;51.212;6.788;2023-07-20T12:56:04;100764.94;;;31.75;30.26
46955;BME280;32708;51.212;6.788;2023-07-20T12:58:31;100772.63;;;32.24;29.78
46955;BME280;32708;51.212;6.788;2023-07-20T13:00:57;100761.16;;;32.09;29.91
46955;BME280;32708;51.212;6.788;2023-07-20T13:03:23;100758.41;;;32.92;28.41
46955;BME280;32708;51.212;6.788;2023-07-20T13:05:50;100759.03;;;32.77;28.42